Time;durP1;ratioP1;P1;durP2;ratioP2;P2;SDS_P1;SDS_P2;PMS_P1;PMS_P2;Temp;Humidity;BMP_temperature;BMP_pressure;BME280_temperature;BME280_humidity;BME280_pressure;Samples;Min_cycle;Max_cycle;Signal;HPM_P1;HPM_P2
2022/06/12 00:00:35;;;;;;;0.80;0.80;;;17.60;99.90;;;;;;5055644;28;20458;-81
2022/06/12 00:03:05;;;;;;;1.00;0.90;;;17.50;99.90;;;;;;5055389;28;20445;-81
2022/06/12 00:05:35;;;;;;;1.87;1.50;;;17.50;99.90;;;;;;5055663;28;20415;-81
2022/06/12 00:08:02;;;;;;;3.23;1.00;;;17.50;99.90;;;;;;5055552;28;20434;-81
2022/06/12 00:10:29;;;;;;;0.73;0.73;;;17.40;99.90;;;;;;5055314;28;20450;-80
2022/06/12 00:12:56;;;;;;;1.13;0.90;;;17.40;99.90;;;;;;5055456;28;20441;-81
2022/06/12 00:15:27;;;;;;;2.63;1.33;;;17.40;99.90;;;;;;5054941;28;20992;-80
2022/06/12 00:17:54;;;;;;;3.47;0.93;;;17.40;99.90;;;;;;5055208;28;20476;-80
2022/06/12 00:20:23;;;;;;;0.80;0.80;;;17.40;99.90;;;;;;5055307;28;20465;-81
2022/06/12 00:22:51;;;;;;;1.07;0.93;;;17.40;99.90;;;;;;5055174;28;20438;-80
2022/06/12 00:25:18;;;;;;;1.37;1.27;;;17.30;99.90;;;;;;5054962;28;20472;-81
2022/06/12 00:27:46;;;;;;;0.63;0.63;;;17.30;99.90;;;;;;5054737;28;20485;-81
2022/06/12 00:30:15;;;;;;;0.80;0.80;;;17.20;99.90;;;;;;5055531;28;20462;-80
2022/06/12 00:32:46;;;;;;;1.20;1.10;;;17.20;99.90;;;;;;5055290;28;20442;-80
2022/06/12 00:35:13;;;;;;;1.10;0.97;;;17.10;99.90;;;;;;5054928;28;20521;-81
2022/06/12 00:37:41;;;;;;;0.67;0.63;;;17.10;99.90;;;;;;5054989;28;20449;-81
2022/06/12 00:40:09;;;;;;;1.30;0.80;;;17.00;99.90;;;;;;5054929;28;20450;-81
2022/06/12 00:42:40;;;;;;;1.73;1.60;;;17.00;99.90;;;;;;5054856;28;20453;-81
2022/06/12 00:45:42;;;;;;;2.73;1.40;;;16.90;99.90;;;;;;5054977;28;20976;-81
2022/06/12 00:48:11;;;;;;;1.17;1.07;;;16.90;99.90;;;;;;5049842;28;20453;-81
2022/06/12 00:50:43;;;;;;;2.10;0.90;;;16.80;99.90;;;;;;5055142;28;20449;-81
2022/06/12 00:53:15;;;;;;;0.87;0.87;;;16.80;99.90;;;;;;5054840;28;20406;-81
2022/06/12 00:55:46;;;;;;;1.20;1.10;;;16.80;99.90;;;;;;5054863;28;20462;-81
2022/06/12 00:58:17;;;;;;;1.77;1.10;;;16.80;99.90;;;;;;5054628;28;20438;-81
2022/06/12 01:00:44;;;;;;;1.70;0.80;;;16.80;99.90;;;;;;5054559;28;20434;-81
2022/06/12 01:03:11;;;;;;;2.23;0.97;;;16.80;99.90;;;;;;5054269;28;20521;-80
2022/06/12 01:08:24;;;;;;;2.50;1.43;;;16.90;99.90;;;;;;5055893;28;20421;-80
2022/06/12 01:10:55;;;;;;;1.40;0.77;;;16.90;99.90;;;;;;5054072;28;20941;-81
2022/06/12 01:13:25;;;;;;;0.70;0.70;;;16.90;99.90;;;;;;5054007;28;20933;-80
2022/06/12 01:15:56;;;;;;;0.70;0.70;;;16.80;99.90;;;;;;5053911;28;20466;-81
2022/06/12 01:18:25;;;;;;;0.80;0.80;;;16.80;99.90;;;;;;5054208;28;20802;-81
2022/06/12 01:20:59;;;;;;;0.80;0.80;;;16.80;99.90;;;;;;5053918;28;20438;-81
2022/06/12 01:23:54;;;;;;;2.87;1.43;;;16.80;99.90;;;;;;5054107;28;20466;-80
2022/06/12 01:26:57;;;;;;;0.97;0.70;;;16.80;99.90;;;;;;5054024;28;20478;-81
2022/06/12 01:29:30;;;;;;;2.63;1.40;;;16.70;99.90;;;;;;5053885;28;20940;-81
2022/06/12 01:32:04;;;;;;;1.10;1.07;;;16.70;99.90;;;;;;5054232;28;20434;-81
2022/06/12 01:34:38;;;;;;;1.13;0.87;;;16.60;99.90;;;;;;5053531;28;21006;-81
2022/06/12 01:37:17;;;;;;;0.90;0.90;;;16.70;99.90;;;;;;5053918;28;20441;-80
2022/06/12 01:39:49;;;;;;;0.87;0.80;;;16.60;99.90;;;;;;5053877;28;20797;-80
2022/06/12 01:42:22;;;;;;;2.00;1.40;;;16.60;99.90;;;;;;5054497;28;20835;-81
2022/06/12 01:45:02;;;;;;;1.67;1.30;;;16.60;99.90;;;;;;5053521;28;20461;-81
2022/06/12 01:47:35;;;;;;;1.80;1.13;;;16.50;99.90;;;;;;5054445;28;20441;-81
2022/06/12 01:50:11;;;;;;;7.30;1.10;;;16.50;99.90;;;;;;5053368;28;20793;-81
2022/06/12 01:52:51;;;;;;;0.80;0.80;;;16.40;99.90;;;;;;5053670;28;20430;-80
2022/06/12 01:55:24;;;;;;;1.10;0.97;;;16.40;99.90;;;;;;5053443;28;20496;-80
2022/06/12 01:57:59;;;;;;;1.60;1.17;;;16.40;99.90;;;;;;5053853;28;20434;-81
2022/06/12 02:00:28;;;;;;;1.00;0.90;;;16.30;99.90;;;;;;5053226;28;20871;-81
2022/06/12 02:03:01;;;;;;;2.20;0.90;;;16.30;99.90;;;;;;5053148;28;20840;-80
2022/06/12 02:05:34;;;;;;;2.23;1.13;;;16.20;99.90;;;;;;5053436;28;20438;-81
2022/06/12 02:08:06;;;;;;;0.83;0.80;;;16.20;99.90;;;;;;5053151;28;20928;-81
2022/06/12 02:10:41;;;;;;;1.90;1.23;;;16.20;99.90;;;;;;5053088;28;20442;-81
2022/06/12 02:13:12;;;;;;;3.67;1.70;;;16.10;99.90;;;;;;5052976;28;20802;-81
2022/06/12 02:15:50;;;;;;;0.90;0.70;;;16.10;99.90;;;;;;5053248;28;20494;-81
2022/06/12 02:18:25;;;;;;;1.77;1.10;;;16.10;99.90;;;;;;5053317;28;20783;-81
2022/06/12 02:20:58;;;;;;;1.10;0.93;;;16.10;99.90;;;;;;5053303;28;20433;-81
2022/06/12 02:23:30;;;;;;;0.93;0.80;;;16.10;99.90;;;;;;5052882;28;21087;-81
2022/06/12 02:25:57;;;;;;;0.90;0.80;;;16.10;99.90;;;;;;5053002;28;20999;-80
2022/06/12 02:28:26;;;;;;;2.00;0.90;;;16.00;99.90;;;;;;5053261;28;20792;-80
2022/06/12 02:31:01;;;;;;;0.70;0.70;;;16.00;99.90;;;;;;5052936;28;20444;-81
2022/06/12 02:33:32;;;;;;;0.83;0.83;;;16.00;99.90;;;;;;5053112;28;20538;-80
2022/06/12 02:36:04;;;;;;;1.47;1.37;;;15.90;99.90;;;;;;5052868;28;20474;-80
2022/06/12 02:38:36;;;;;;;0.80;0.80;;;15.90;99.90;;;;;;5053099;28;20437;-80
2022/06/12 02:41:09;;;;;;;1.17;1.07;;;15.90;99.90;;;;;;5053022;28;20820;-80
2022/06/12 02:43:40;;;;;;;0.60;0.60;;;15.90;99.90;;;;;;5053017;28;20478;-81
2022/06/12 02:46:13;;;;;;;0.70;0.70;;;15.90;99.90;;;;;;5053066;28;20440;-81
2022/06/12 02:48:40;;;;;;;0.70;0.70;;;15.90;99.90;;;;;;5052742;28;20437;-81
2022/06/12 02:51:12;;;;;;;2.13;0.70;;;15.90;99.90;;;;;;5052935;28;21007;-80
2022/06/12 02:53:49;;;;;;;0.60;0.60;;;15.80;99.90;;;;;;5052899;28;20544;-80
2022/06/12 02:56:27;;;;;;;1.60;0.90;;;15.80;99.90;;;;;;5053029;28;20465;-80
2022/06/12 02:58:59;;;;;;;1.17;0.87;;;15.80;99.90;;;;;;5053044;28;20430;-80
2022/06/12 03:01:35;;;;;;;1.10;0.83;;;15.80;99.90;;;;;;5053422;28;20786;-80
2022/06/12 03:04:08;;;;;;;0.90;0.90;;;15.80;99.90;;;;;;5052529;28;20479;-80
2022/06/12 03:06:37;;;;;;;0.70;0.60;;;15.70;99.90;;;;;;5052612;28;20913;-80
2022/06/12 03:09:06;;;;;;;1.10;0.70;;;15.70;99.90;;;;;;5052529;28;20458;-81
2022/06/12 03:11:35;;;;;;;0.60;0.60;;;15.70;99.90;;;;;;5052527;28;20438;-80
2022/06/12 03:14:02;;;;;;;1.27;0.80;;;15.70;99.90;;;;;;5052662;28;20461;-80
2022/06/12 03:16:32;;;;;;;1.80;1.70;;;15.70;99.90;;;;;;5052751;28;20485;-81
2022/06/12 03:19:01;;;;;;;0.90;0.63;;;15.70;99.90;;;;;;5052782;28;20438;-80
2022/06/12 03:21:41;;;;;;;2.17;0.87;;;15.60;99.90;;;;;;5052453;28;20913;-81
2022/06/12 03:24:25;;;;;;;1.93;0.80;;;15.60;99.90;;;;;;5052657;28;20504;-81
2022/06/12 03:27:04;;;;;;;0.80;0.73;;;15.60;99.90;;;;;;5052346;28;20988;-81
2022/06/12 03:29:40;;;;;;;1.33;0.90;;;15.60;99.90;;;;;;5055714;28;20430;-80
2022/06/12 03:32:18;;;;;;;0.87;0.87;;;15.60;99.90;;;;;;5056305;28;20410;-81
2022/06/12 03:34:51;;;;;;;0.87;0.87;;;15.60;99.90;;;;;;5056187;28;20482;-80
2022/06/12 03:37:24;;;;;;;1.10;1.00;;;15.60;99.90;;;;;;5056410;28;20757;-81
2022/06/12 03:39:58;;;;;;;0.67;0.60;;;15.60;99.90;;;;;;5056180;28;20487;-80
2022/06/12 03:42:34;;;;;;;0.70;0.50;;;15.60;99.90;;;;;;5056074;28;20437;-81
2022/06/12 03:45:08;;;;;;;1.60;0.67;;;15.60;99.90;;;;;;5055979;28;20469;-80
2022/06/12 03:47:45;;;;;;;0.67;0.60;;;15.60;99.90;;;;;;5056042;28;20753;-80
2022/06/12 03:50:16;;;;;;;0.80;0.80;;;15.60;99.90;;;;;;5055693;28;20882;-80
2022/06/12 03:52:50;;;;;;;2.27;1.27;;;15.70;99.90;;;;;;5055916;28;20407;-80
2022/06/12 03:57:50;;;;;;;1.23;1.03;;;15.80;99.90;;;;;;5055565;28;20857;-80
2022/06/12 03:58:15;;;;;;;1.03;0.80;;;15.80;99.90;;;;;;5055416;28;20446;-81
2022/06/12 04:00:45;;;;;;;0.83;0.60;;;15.90;99.90;;;;;;5055749;28;20434;-80
2022/06/12 04:03:18;;;;;;;0.97;0.80;;;15.90;99.90;;;;;;5055600;28;20410;-81
2022/06/12 04:05:49;;;;;;;2.73;1.20;;;15.90;99.90;;;;;;5055346;28;20829;-81
2022/06/12 04:08:19;;;;;;;1.70;1.10;;;15.90;99.90;;;;;;5056281;28;20446;-80
2022/06/12 04:10:48;;;;;;;0.80;0.80;;;15.90;99.90;;;;;;5055191;28;20780;-80
2022/06/12 04:13:18;;;;;;;0.83;0.77;;;16.00;99.90;;;;;;5055375;28;20460;-80
2022/06/12 04:15:48;;;;;;;0.60;0.60;;;16.00;99.90;;;;;;5055384;28;20473;-80
2022/06/12 04:18:16;;;;;;;0.70;0.60;;;16.00;99.90;;;;;;5055408;28;20467;-80
2022/06/12 04:20:54;;;;;;;1.00;1.00;;;16.10;99.90;;;;;;5055053;28;20445;-80
2022/06/12 04:23:27;;;;;;;1.07;0.90;;;16.10;99.90;;;;;;5055168;28;20430;-80
2022/06/12 04:25:56;;;;;;;0.83;0.77;;;16.20;99.90;;;;;;5054755;28;20845;-80
2022/06/12 04:28:29;;;;;;;1.70;0.83;;;16.20;99.90;;;;;;5055981;28;20426;-80
2022/06/12 04:30:57;;;;;;;1.20;0.93;;;16.20;99.90;;;;;;5054840;28;20827;-81
2022/06/12 04:33:35;;;;;;;0.90;0.90;;;16.30;99.90;;;;;;5054719;28;20458;-80
2022/06/12 04:36:03;;;;;;;0.80;0.80;;;16.30;99.90;;;;;;5055035;28;20465;-80
2022/06/12 04:38:32;;;;;;;2.07;1.57;;;16.40;99.90;;;;;;5054970;28;20460;-80
2022/06/12 04:40:58;;;;;;;1.17;0.83;;;16.50;99.90;;;;;;5053586;28;20430;-80
2022/06/12 04:43:26;;;;;;;1.67;1.57;;;16.50;99.90;;;;;;5054597;28;20458;-80
2022/06/12 04:45:53;;;;;;;1.10;1.00;;;16.50;99.90;;;;;;5055219;28;20461;-81
2022/06/12 04:48:26;;;;;;;1.30;1.20;;;16.60;99.90;;;;;;5054810;28;20449;-81
2022/06/12 04:50:55;;;;;;;1.10;1.00;;;16.60;99.90;;;;;;5055476;28;20446;-80
2022/06/12 04:53:22;;;;;;;0.70;0.60;;;16.60;99.90;;;;;;5054715;28;20460;-80
2022/06/12 04:55:48;;;;;;;1.13;0.90;;;16.70;99.90;;;;;;5054772;28;20490;-80
2022/06/12 04:58:15;;;;;;;1.60;0.90;;;16.70;99.90;;;;;;5055053;28;20460;-80
2022/06/12 05:00:42;;;;;;;0.77;0.63;;;16.70;99.90;;;;;;5054624;28;20540;-80
2022/06/12 05:03:11;;;;;;;0.70;0.70;;;16.80;99.90;;;;;;5054460;28;20453;-80
2022/06/12 05:05:38;;;;;;;1.50;1.10;;;16.80;99.90;;;;;;5054316;28;20446;-81
2022/06/12 05:08:06;;;;;;;1.30;0.73;;;16.80;99.90;;;;;;5054445;28;20457;-81
2022/06/12 05:10:33;;;;;;;1.83;1.37;;;17.00;99.90;;;;;;5054128;28;20434;-80
2022/06/12 05:13:00;;;;;;;1.13;1.03;;;17.00;99.90;;;;;;5054315;28;20454;-80
2022/06/12 05:15:26;;;;;;;1.80;0.87;;;17.00;99.90;;;;;;5054141;28;20453;-80
2022/06/12 05:17:54;;;;;;;1.30;1.20;;;17.10;99.90;;;;;;5054204;28;20437;-80
2022/06/12 05:20:27;;;;;;;1.77;1.60;;;17.20;99.90;;;;;;5054178;28;20446;-81
2022/06/12 05:22:54;;;;;;;1.00;1.00;;;17.30;99.90;;;;;;5054191;28;20441;-81
2022/06/12 05:25:23;;;;;;;1.47;1.37;;;17.30;99.90;;;;;;5054265;28;20465;-80
2022/06/12 05:27:51;;;;;;;1.37;1.27;;;17.40;99.90;;;;;;5053638;28;21027;-81
2022/06/12 05:30:20;;;;;;;1.23;0.90;;;17.60;99.90;;;;;;5054336;28;20434;-81
2022/06/12 05:32:50;;;;;;;2.90;0.90;;;17.70;99.90;;;;;;5053844;28;20438;-80
2022/06/12 05:35:18;;;;;;;2.00;0.90;;;17.80;99.90;;;;;;5053766;28;20476;-81
2022/06/12 05:37:45;;;;;;;1.00;0.90;;;17.80;99.90;;;;;;5053987;28;20512;-80
2022/06/12 05:40:16;;;;;;;1.37;0.97;;;17.90;99.90;;;;;;5053595;28;20438;-81
2022/06/12 05:42:44;;;;;;;0.87;0.87;;;18.00;99.90;;;;;;5054011;28;20437;-81
2022/06/12 05:45:14;;;;;;;0.73;0.73;;;18.20;99.90;;;;;;5053459;28;20465;-81
2022/06/12 05:47:45;;;;;;;2.10;1.43;;;18.30;99.90;;;;;;5054540;28;20453;-81
2022/06/12 05:50:12;;;;;;;0.97;0.87;;;18.40;99.90;;;;;;5053504;28;20422;-81
2022/06/12 05:52:39;;;;;;;1.73;1.13;;;18.60;99.90;;;;;;5053343;28;20467;-81
2022/06/12 05:55:07;;;;;;;1.73;1.17;;;18.70;99.90;;;;;;5053246;28;20972;-80
2022/06/12 05:57:34;;;;;;;1.53;1.20;;;18.90;99.90;;;;;;5053194;28;20486;-80
2022/06/12 06:00:02;;;;;;;2.13;0.90;;;19.10;99.90;;;;;;5053650;28;20454;-80
2022/06/12 06:02:31;;;;;;;1.77;1.20;;;19.20;99.90;;;;;;5053780;28;20454;-81
2022/06/12 06:04:57;;;;;;;1.60;0.90;;;19.40;99.90;;;;;;5053079;28;20466;-80
2022/06/12 06:07:24;;;;;;;1.60;1.07;;;19.60;99.90;;;;;;5053220;28;20438;-81
2022/06/12 06:09:51;;;;;;;1.70;1.30;;;19.90;99.90;;;;;;5053088;28;20944;-81
2022/06/12 06:12:18;;;;;;;1.23;1.13;;;20.20;99.90;;;;;;5053552;28;20453;-81
2022/06/12 06:14:45;;;;;;;0.90;0.90;;;20.50;99.90;;;;;;5053320;28;20564;-81
2022/06/12 06:17:13;;;;;;;1.50;1.40;;;20.80;99.90;;;;;;5052974;28;20488;-81
2022/06/12 06:19:40;;;;;;;1.00;0.90;;;21.10;99.90;;;;;;5053286;28;20445;-81
2022/06/12 06:22:06;;;;;;;1.13;1.08;;;21.30;99.90;;;;;;5053260;28;20229;-81
2022/06/12 06:24:33;;;;;;;0.95;0.95;;;21.60;99.90;;;;;;5053200;28;20226;-81
2022/06/12 06:27:00;;;;;;;1.50;1.10;;;22.00;99.90;;;;;;5052852;28;20231;-81
2022/06/12 06:29:27;;;;;;;1.85;1.15;;;22.30;99.90;;;;;;5052954;28;20521;-81
2022/06/12 06:31:54;;;;;;;1.20;0.90;;;22.70;99.90;;;;;;5053070;28;20207;-81
2022/06/12 06:34:22;;;;;;;0.80;0.80;;;23.00;99.90;;;;;;5052804;28;20709;-81
2022/06/12 06:36:49;;;;;;;1.10;0.98;;;23.50;99.90;;;;;;5052775;28;20211;-81
2022/06/12 06:39:15;;;;;;;1.17;0.88;;;23.90;99.90;;;;;;5053067;28;20195;-81
2022/06/12 06:41:42;;;;;;;1.80;0.80;;;24.00;99.90;;;;;;5053112;28;20203;-81
2022/06/12 06:46:53;;;;;;;0.75;0.75;;;24.30;99.90;;;;;;5052869;28;20189;-82
2022/06/12 06:49:22;;;;;;;1.10;1.10;;;24.40;99.90;;;;;;5052992;28;20212;-82
2022/06/12 06:51:49;;;;;;;1.55;1.45;;;24.60;99.90;;;;;;5052992;28;20211;-82
2022/06/12 06:54:16;;;;;;;1.13;0.93;;;24.70;99.90;;;;;;5052924;28;20288;-82
2022/06/12 06:56:43;;;;;;;1.38;1.00;;;25.00;99.90;;;;;;5052662;28;20225;-82
2022/06/12 06:59:10;;;;;;;0.88;0.80;;;25.00;99.90;;;;;;5052953;28;20199;-81
2022/06/12 07:01:37;;;;;;;1.55;1.45;;;25.10;99.90;;;;;;5052947;28;20195;-82
2022/06/12 07:04:04;;;;;;;0.98;0.98;;;25.10;99.90;;;;;;5055318;28;20227;-82
2022/06/12 07:06:32;;;;;;;2.03;1.92;;;24.90;99.90;;;;;;5056746;28;20580;-82
2022/06/12 07:08:59;;;;;;;0.93;0.90;;;24.90;99.90;;;;;;5056364;28;20198;-81
2022/06/12 07:11:27;;;;;;;1.25;1.15;;;24.70;99.90;;;;;;5056936;28;20210;-82
2022/06/12 07:13:56;;;;;;;1.17;1.08;;;24.60;99.90;;;;;;5056474;28;20222;-82
2022/06/12 07:16:26;;;;;;;1.00;0.98;;;24.70;99.90;;;;;;5056193;28;20226;-82
2022/06/12 07:18:53;;;;;;;1.10;0.95;;;24.70;99.90;;;;;;5056369;28;20199;-82
2022/06/12 07:21:20;;;;;;;1.90;0.90;;;24.70;99.90;;;;;;5056216;28;20199;-82
2022/06/12 07:23:49;;;;;;;0.90;0.90;;;24.90;99.90;;;;;;5056972;28;20610;-82
2022/06/12 07:26:21;;;;;;;0.90;0.90;;;24.90;99.90;;;;;;5056378;28;20230;-81
2022/06/12 07:28:48;;;;;;;4.15;0.95;;;25.00;99.90;;;;;;5056402;28;20183;-82
2022/06/12 07:31:15;;;;;;;0.90;0.90;;;25.10;99.90;;;;;;5056292;28;20203;-82
2022/06/12 07:33:42;;;;;;;1.05;0.95;;;25.20;99.90;;;;;;5056010;28;20593;-82
2022/06/12 07:36:11;;;;;;;1.20;1.10;;;25.40;99.90;;;;;;5056111;28;20206;-82
2022/06/12 07:38:39;;;;;;;0.80;0.80;;;25.80;99.90;;;;;;5056082;28;20194;-82
2022/06/12 07:41:10;;;;;;;0.80;0.80;;;26.10;99.90;;;;;;5055874;28;20673;-82
2022/06/12 07:43:40;;;;;;;0.95;0.90;;;26.60;99.90;;;;;;5056035;28;20257;-82
2022/06/12 07:46:09;;;;;;;1.20;0.90;;;27.00;99.80;;;;;;5056061;28;20201;-82
2022/06/12 07:48:36;;;;;;;0.90;0.90;;;27.60;99.10;;;;;;5055954;28;20210;-82
2022/06/12 07:51:07;;;;;;;1.35;0.95;;;28.20;97.80;;;;;;5055926;28;20211;-82
2022/06/12 07:53:35;;;;;;;0.98;0.85;;;28.70;95.40;;;;;;5055840;28;20254;-82
2022/06/12 07:56:03;;;;;;;0.80;0.80;;;29.20;93.90;;;;;;5055838;28;20647;-82
2022/06/12 07:58:31;;;;;;;0.93;0.88;;;29.50;92.00;;;;;;5055965;28;20279;-83
2022/06/12 08:01:03;;;;;;;1.27;1.17;;;29.90;91.80;;;;;;5055737;28;20202;-82
2022/06/12 08:03:30;;;;;;;2.75;1.27;;;30.10;89.10;;;;;;5055585;28;20316;-82
2022/06/12 08:05:58;;;;;;;0.93;0.93;;;30.10;87.10;;;;;;5055327;28;20717;-82
2022/06/12 08:08:25;;;;;;;1.00;1.00;;;30.20;88.00;;;;;;5056253;28;20199;-82
2022/06/12 08:10:53;;;;;;;1.27;1.17;;;30.30;86.20;;;;;;5055235;28;20214;-82
2022/06/12 08:13:20;;;;;;;1.38;1.00;;;30.70;83.30;;;;;;5055644;28;20207;-82
2022/06/12 08:15:50;;;;;;;0.90;0.90;;;31.10;80.70;;;;;;5054965;28;20577;-82
2022/06/12 08:18:18;;;;;;;1.13;1.02;;;31.70;78.50;;;;;;5055343;28;20229;-82
2022/06/12 08:20:49;;;;;;;1.17;1.02;;;32.10;77.40;;;;;;5055046;28;20705;-82
2022/06/12 08:23:29;;;;;;;1.33;1.23;;;32.30;72.70;;;;;;5055307;28;20208;-82
2022/06/12 08:25:58;;;;;;;0.80;0.80;;;32.10;72.90;;;;;;5055261;28;20262;-82
2022/06/12 08:28:26;;;;;;;1.17;1.17;;;31.70;71.30;;;;;;5055288;28;20184;-82
2022/06/12 08:30:54;;;;;;;0.85;0.85;;;31.80;71.70;;;;;;5055058;28;20211;-82
2022/06/12 08:33:22;;;;;;;2.15;0.88;;;31.90;70.80;;;;;;5055108;28;20208;-83
2022/06/12 08:35:49;;;;;;;1.17;1.10;;;31.90;69.90;;;;;;5055051;28;20217;-83
2022/06/12 08:38:16;;;;;;;1.73;0.85;;;32.00;69.00;;;;;;5054974;28;20221;-82
2022/06/12 08:40:51;;;;;;;1.10;1.10;;;32.00;70.30;;;;;;5054970;28;20209;-83
2022/06/12 08:43:26;;;;;;;1.17;1.10;;;32.10;67.20;;;;;;5055157;28;20194;-83
2022/06/12 08:45:57;;;;;;;1.30;1.20;;;32.10;67.00;;;;;;5054709;28;20190;-83
2022/06/12 08:48:29;;;;;;;0.80;0.80;;;32.40;64.50;;;;;;5055075;28;20187;-82
2022/06/12 08:51:02;;;;;;;2.15;0.98;;;32.70;63.50;;;;;;5054865;28;20188;-82
2022/06/12 08:53:40;;;;;;;0.80;0.80;;;32.90;64.00;;;;;;5054743;28;20222;-83
2022/06/12 08:56:12;;;;;;;0.95;0.95;;;33.10;62.30;;;;;;5054494;28;20191;-83
2022/06/12 08:58:41;;;;;;;0.93;0.93;;;33.10;60.70;;;;;;5054301;28;20204;-82
2022/06/12 09:01:11;;;;;;;0.70;0.70;;;33.00;59.60;;;;;;5054600;28;20241;-83
2022/06/12 09:03:40;;;;;;;0.85;0.85;;;32.70;61.00;;;;;;5054502;28;20236;-83
2022/06/12 09:06:15;;;;;;;0.85;0.85;;;32.30;62.00;;;;;;5054486;28;20209;-83
2022/06/12 09:08:48;;;;;;;1.05;0.85;;;32.00;62.70;;;;;;5054498;28;20245;-83
2022/06/12 09:11:21;;;;;;;0.93;0.90;;;31.60;62.60;;;;;;5054145;28;20191;-82
2022/06/12 09:13:56;;;;;;;0.90;0.90;;;31.30;62.40;;;;;;5054365;28;20226;-82
2022/06/12 09:16:32;;;;;;;0.98;0.98;;;31.10;62.20;;;;;;5054373;28;20644;-82
2022/06/12 09:19:04;;;;;;;0.80;0.80;;;30.90;63.30;;;;;;5054041;28;20211;-82
2022/06/12 09:21:43;;;;;;;1.40;1.30;;;30.90;62.80;;;;;;5054064;28;20186;-83
2022/06/12 09:24:20;;;;;;;3.35;1.20;;;30.70;62.80;;;;;;5053873;28;20253;-82
2022/06/12 09:26:55;;;;;;;0.98;0.98;;;30.60;63.80;;;;;;5053229;28;20241;-83
2022/06/12 09:29:31;;;;;;;0.98;0.98;;;30.60;63.40;;;;;;5054105;28;20187;-82
2022/06/12 09:32:08;;;;;;;0.88;0.75;;;30.60;64.50;;;;;;5053780;28;20653;-82
2022/06/12 09:34:43;;;;;;;0.70;0.70;;;30.60;66.00;;;;;;5053959;28;20220;-82
2022/06/12 09:40:19;;;;;;;0.75;0.75;;;30.40;66.00;;;;;;5053642;28;20181;-82
2022/06/12 09:42:57;;;;;;;4.32;1.20;;;30.50;65.40;;;;;;5053880;28;20192;-82
2022/06/12 09:45:29;;;;;;;1.05;1.05;;;30.40;64.90;;;;;;5053755;28;20226;-82
2022/06/12 09:48:07;;;;;;;0.88;0.88;;;30.30;64.70;;;;;;5053400;28;20559;-82
2022/06/12 09:50:47;;;;;;;1.25;0.90;;;30.10;64.90;;;;;;5053923;28;20199;-81
2022/06/12 09:53:30;;;;;;;0.82;0.82;;;29.80;65.30;;;;;;5053653;28;20194;-82
2022/06/12 09:56:01;;;;;;;0.68;0.68;;;29.70;65.30;;;;;;5053689;28;20557;-82
2022/06/12 09:58:35;;;;;;;0.65;0.65;;;29.60;60.90;;;;;;5053558;28;20214;-82
2022/06/12 10:01:05;;;;;;;0.60;0.60;;;29.60;62.50;;;;;;5053349;28;20549;-82
2022/06/12 10:03:39;;;;;;;0.47;0.47;;;29.60;63.50;;;;;;5053847;28;20252;-82
2022/06/12 10:06:18;;;;;;;0.60;0.60;;;29.60;59.50;;;;;;5053211;28;20186;-82
2022/06/12 10:08:50;;;;;;;1.35;1.10;;;29.50;62.40;;;;;;5053497;28;20183;-82
2022/06/12 10:11:22;;;;;;;0.68;0.68;;;29.60;62.00;;;;;;5054150;28;20211;-82
2022/06/12 10:13:53;;;;;;;0.80;0.80;;;29.50;62.70;;;;;;5053336;28;20236;-82
2022/06/12 10:16:25;;;;;;;2.55;0.80;;;29.50;63.00;;;;;;5053413;28;20204;-82
2022/06/12 10:19:00;;;;;;;0.80;0.73;;;29.50;61.90;;;;;;5053313;28;20217;-81
2022/06/12 10:21:29;;;;;;;0.80;0.80;;;29.60;60.40;;;;;;5053350;28;20196;-81
2022/06/12 10:23:55;;;;;;;0.70;0.70;;;29.50;61.80;;;;;;5052960;28;20225;-81
2022/06/12 10:26:26;;;;;;;0.73;0.73;;;29.40;62.60;;;;;;5053489;28;20234;-82
2022/06/12 10:29:04;;;;;;;0.80;0.80;;;29.30;63.60;;;;;;5053012;28;20198;-82
2022/06/12 10:31:34;;;;;;;0.80;0.77;;;29.20;63.60;;;;;;5053478;28;20179;-81
2022/06/12 10:34:16;;;;;;;0.80;0.80;;;29.20;64.30;;;;;;5053371;28;20232;-82
2022/06/12 10:36:43;;;;;;;1.33;1.33;;;29.40;64.00;;;;;;5053055;28;20210;-82
2022/06/12 10:39:15;;;;;;;0.90;0.75;;;29.50;65.40;;;;;;5055575;28;20233;-82
2022/06/12 10:41:46;;;;;;;0.95;0.90;;;29.50;66.00;;;;;;5057153;28;20201;-82
2022/06/12 10:44:36;;;;;;;0.90;0.90;;;29.60;65.00;;;;;;5056873;28;20230;-82
2022/06/12 10:47:24;;;;;;;1.02;1.02;;;29.60;63.10;;;;;;5057162;28;20191;-82
2022/06/12 10:50:15;;;;;;;0.80;0.80;;;29.50;63.90;;;;;;5053893;28;20681;-82
2022/06/12 10:52:52;;;;;;;0.90;0.90;;;29.40;64.90;;;;;;5057560;28;20194;-82
2022/06/12 10:55:23;;;;;;;0.70;0.70;;;29.20;64.00;;;;;;5056907;28;20238;-82
2022/06/12 10:57:56;;;;;;;0.77;0.75;;;29.30;66.10;;;;;;5056696;28;20582;-82
2022/06/12 11:00:27;;;;;;;1.10;1.00;;;29.60;63.40;;;;;;5056956;28;20197;-81
2022/06/12 11:03:15;;;;;;;1.00;1.00;;;29.70;64.00;;;;;;5057139;28;20282;-82
2022/06/12 11:06:05;;;;;;;0.70;0.70;;;29.80;64.40;;;;;;5056597;28;20198;-82
2022/06/12 11:08:56;;;;;;;1.00;0.90;;;29.90;63.70;;;;;;5056811;28;20651;-82
2022/06/12 11:11:33;;;;;;;0.90;0.90;;;30.10;62.40;;;;;;5056754;28;20183;-82
2022/06/12 11:14:12;;;;;;;1.00;0.90;;;30.10;62.30;;;;;;5056997;28;20222;-81
2022/06/12 11:16:51;;;;;;;1.05;1.05;;;30.20;65.50;;;;;;5056648;28;20197;-81
2022/06/12 11:19:34;;;;;;;0.80;0.80;;;30.10;63.50;;;;;;5056514;28;20220;-82
2022/06/12 11:22:14;;;;;;;1.55;0.77;;;30.00;64.60;;;;;;5056602;28;20187;-82
2022/06/12 11:24:59;;;;;;;1.10;1.10;;;29.80;63.00;;;;;;5056197;28;20223;-81
2022/06/12 11:27:42;;;;;;;1.40;1.10;;;29.70;63.70;;;;;;5056020;28;20230;-82
2022/06/12 11:30:25;;;;;;;1.42;0.80;;;29.50;63.60;;;;;;5056604;28;20194;-82
2022/06/12 11:33:25;;;;;;;0.85;0.85;;;29.30;63.50;;;;;;5056257;28;20199;-82
2022/06/12 11:35:59;;;;;;;0.90;0.90;;;29.20;63.50;;;;;;5052999;28;20209;-82
2022/06/12 11:38:40;;;;;;;0.77;0.77;;;29.20;65.20;;;;;;5056156;28;20229;-82
2022/06/12 11:41:15;;;;;;;0.80;0.80;;;29.30;64.50;;;;;;5056162;28;20186;-82
2022/06/12 11:43:45;;;;;;;0.90;0.90;;;29.30;65.60;;;;;;5055655;28;20227;-81
2022/06/12 11:46:21;;;;;;;1.00;0.95;;;29.20;64.80;;;;;;5055865;28;20566;-81
2022/06/12 11:49:05;;;;;;;0.80;0.80;;;29.00;64.20;;;;;;5055442;28;20187;-81
2022/06/12 11:51:42;;;;;;;1.60;1.00;;;28.70;65.80;;;;;;5056001;28;20244;-81
2022/06/12 11:54:37;;;;;;;0.90;0.90;;;28.40;67.20;;;;;;5055529;28;20232;-81
2022/06/12 11:57:13;;;;;;;0.90;0.90;;;28.50;68.80;;;;;;5056138;28;20560;-82
2022/06/12 11:59:54;;;;;;;0.80;0.80;;;28.60;66.10;;;;;;5055796;28;20223;-82
2022/06/12 12:02:34;;;;;;;0.95;0.95;;;28.60;66.20;;;;;;5055814;28;20186;-82
2022/06/12 12:05:14;;;;;;;1.33;1.00;;;28.60;65.90;;;;;;5055336;28;20566;-82
2022/06/12 12:08:05;;;;;;;1.00;0.90;;;28.50;66.50;;;;;;5055400;28;20657;-81
2022/06/12 12:10:54;;;;;;;1.30;1.20;;;28.50;71.30;;;;;;5055649;28;20197;-81
2022/06/12 12:13:27;;;;;;;0.70;0.70;;;28.50;67.70;;;;;;5055538;28;20193;-81
2022/06/12 12:15:57;;;;;;;0.90;0.90;;;28.50;69.40;;;;;;5055286;28;20194;-81
2022/06/12 12:18:33;;;;;;;0.70;0.70;;;28.50;71.10;;;;;;5055405;28;20210;-81
2022/06/12 12:21:02;;;;;;;1.08;1.08;;;28.70;68.60;;;;;;5056117;28;20206;-81
2022/06/12 12:23:34;;;;;;;1.17;1.05;;;28.70;68.20;;;;;;5055271;28;20232;-81
2022/06/12 12:26:06;;;;;;;1.33;1.02;;;28.90;67.80;;;;;;5054871;28;20199;-82
2022/06/12 12:28:38;;;;;;;0.85;0.85;;;29.20;67.20;;;;;;5055279;28;20191;-81
2022/06/12 12:31:08;;;;;;;0.95;0.95;;;29.30;65.50;;;;;;5055268;28;20191;-81
2022/06/12 12:33:35;;;;;;;1.05;0.88;;;29.40;65.70;;;;;;5055128;28;20232;-81
2022/06/12 12:41:45;;;;;;;0.80;0.80;;;28.80;67.70;;;;;;5055156;28;20675;-81
2022/06/12 12:44:14;;;;;;;2.15;1.17;;;28.50;69.50;;;;;;5054627;28;20224;-81
2022/06/12 12:46:47;;;;;;;0.90;0.90;;;28.20;71.20;;;;;;5054931;28;20204;-81
2022/06/12 12:49:25;;;;;;;1.15;0.80;;;28.10;70.50;;;;;;5054845;28;20195;-81
2022/06/12 12:52:04;;;;;;;1.00;0.98;;;27.90;71.80;;;;;;5054551;28;20195;-82
2022/06/12 12:54:42;;;;;;;0.90;0.90;;;27.90;72.70;;;;;;5054418;28;20225;-81
2022/06/12 12:57:12;;;;;;;1.10;1.00;;;27.90;73.60;;;;;;5054774;28;20197;-81
2022/06/12 12:59:42;;;;;;;1.92;0.98;;;27.90;74.20;;;;;;5054585;28;20224;-81
2022/06/12 13:02:27;;;;;;;1.17;1.00;;;28.00;74.70;;;;;;5054814;28;20195;-82
2022/06/12 13:04:57;;;;;;;1.67;0.90;;;28.10;74.00;;;;;;5054517;28;20310;-81
2022/06/12 13:07:39;;;;;;;1.17;1.17;;;28.10;73.00;;;;;;5054275;28;20190;-81
2022/06/12 13:10:34;;;;;;;1.05;1.00;;;28.20;70.60;;;;;;5054391;28;20616;-81
2022/06/12 13:13:18;;;;;;;0.90;0.90;;;28.00;72.40;;;;;;5054680;28;20211;-84
2022/06/12 13:15:49;;;;;;;1.30;1.20;;;27.90;73.70;;;;;;5055211;28;20195;-82
2022/06/12 13:18:37;;;;;;;0.88;0.85;;;27.90;74.80;;;;;;5053975;28;20702;-83
2022/06/12 13:21:11;;;;;;;1.13;1.02;;;27.80;72.60;;;;;;5053990;28;20188;-83
2022/06/12 13:23:56;;;;;;;0.80;0.80;;;27.70;73.30;;;;;;5053890;28;20230;-82
2022/06/12 13:26:28;;;;;;;2.20;1.33;;;27.70;73.80;;;;;;5054010;28;20242;-82
2022/06/12 13:28:59;;;;;;;0.90;0.90;;;27.60;74.80;;;;;;5054164;28;20183;-82